createdAt,value
2023-10-03T00:01:20.025Z,59.56
2023-10-03T00:03:46.528Z,59.49
2023-10-03T00:06:13.195Z,59.45
2023-10-03T00:08:40.194Z,59.47
2023-10-03T00:11:06.682Z,59.63
2023-10-03T00:13:33.089Z,59.34
2023-10-03T00:15:59.484Z,59.22
2023-10-03T00:18:25.935Z,59.19
2023-10-03T00:20:52.429Z,59.33
2023-10-03T00:23:19.254Z,59.26
2023-10-03T00:25:45.727Z,59.02
2023-10-03T00:28:12.467Z,59.23
2023-10-03T00:30:42.654Z,59.14
2023-10-03T00:33:13.930Z,59.16
2023-10-03T00:35:44.074Z,59.01
2023-10-03T00:38:14.955Z,59.22
2023-10-03T00:40:41.939Z,59.22
2023-10-03T00:43:08.960Z,59.02
2023-10-03T00:45:35.361Z,59.18
2023-10-03T00:48:12.972Z,59.16
2023-10-03T00:50:39.568Z,58.97
2023-10-03T00:53:10.352Z,59.14
2023-10-03T00:55:37.310Z,59.29
2023-10-03T00:58:24.270Z,59.21
2023-10-03T01:00:50.765Z,59.05
2023-10-03T01:03:30.003Z,59.23
2023-10-03T01:05:59.502Z,59.22
2023-10-03T01:08:28.052Z,59.10
2023-10-03T01:10:56.222Z,59.09
2023-10-03T01:13:25.173Z,58.91
2023-10-03T01:15:51.730Z,59.21
2023-10-03T01:18:21.975Z,59.15
2023-10-03T01:20:56.531Z,59.14
2023-10-03T01:23:23.093Z,58.94
2023-10-03T01:25:50.030Z,58.84
2023-10-03T01:28:16.467Z,59.19
2023-10-03T01:30:42.931Z,58.75
2023-10-03T01:33:09.891Z,59.07
2023-10-03T01:35:36.523Z,59.09
2023-10-03T01:38:02.931Z,58.95
2023-10-03T01:40:29.358Z,59.08
2023-10-03T01:42:56.789Z,58.89
2023-10-03T01:45:24.005Z,59.00
2023-10-03T01:47:53.173Z,58.88
2023-10-03T01:50:20.304Z,58.68
2023-10-03T01:52:49.671Z,58.67
2023-10-03T01:55:18.291Z,58.62
2023-10-03T01:57:46.376Z,58.85
2023-10-03T02:00:26.209Z,58.74
2023-10-03T02:02:57.631Z,58.80
2023-10-03T02:05:28.401Z,58.72
2023-10-03T02:07:56.503Z,58.53
2023-10-03T02:10:23.895Z,58.81
2023-10-03T02:12:50.351Z,58.52
2023-10-03T02:15:17.724Z,58.47
2023-10-03T02:17:44.446Z,58.40
2023-10-03T02:20:16.480Z,58.70
2023-10-03T02:22:42.947Z,58.74
2023-10-03T02:25:10.295Z,58.55
2023-10-03T02:27:36.965Z,58.49
2023-10-03T02:30:13.393Z,58.32
2023-10-03T02:32:40.730Z,58.58
2023-10-03T02:35:07.588Z,58.58
2023-10-03T02:37:34.427Z,58.68
2023-10-03T02:40:01.576Z,58.36
2023-10-03T02:42:29.391Z,58.52
2023-10-03T02:44:55.895Z,58.62
2023-10-03T02:47:22.670Z,58.48
2023-10-03T02:49:50.679Z,58.60
2023-10-03T02:52:17.699Z,58.41
2023-10-03T02:54:44.386Z,58.23
2023-10-03T02:57:10.794Z,58.59
2023-10-03T02:59:37.932Z,58.34
2023-10-03T03:02:06.634Z,58.46
2023-10-03T03:04:34.744Z,58.33
2023-10-03T03:07:05.775Z,58.26
2023-10-03T03:09:36.733Z,58.56
2023-10-03T03:12:05.685Z,58.33
2023-10-03T03:14:32.222Z,58.24
2023-10-03T03:16:58.626Z,58.42
2023-10-03T03:19:27.849Z,58.33
2023-10-03T03:21:58.172Z,58.37
2023-10-03T03:24:35.166Z,58.12
2023-10-03T03:27:01.854Z,58.26
2023-10-03T03:29:36.762Z,58.30
2023-10-03T03:32:05.598Z,58.11
2023-10-03T03:34:32.118Z,58.48
2023-10-03T03:37:18.505Z,58.30
2023-10-03T03:39:54.601Z,58.18
2023-10-03T03:42:23.731Z,58.58
2023-10-03T03:44:50.455Z,58.31
2023-10-03T03:47:19.813Z,58.30
2023-10-03T03:49:47.900Z,58.31
2023-10-03T03:52:17.443Z,58.58
2023-10-03T03:54:43.832Z,58.30
2023-10-03T03:57:10.238Z,58.63
2023-10-03T03:59:36.984Z,58.31
2023-10-03T04:02:04.311Z,58.36
2023-10-03T04:04:30.750Z,58.41
2023-10-03T04:06:57.219Z,58.39
2023-10-03T04:09:23.667Z,58.35
2023-10-03T04:11:50.104Z,58.55
2023-10-03T04:14:16.526Z,58.57
2023-10-03T04:16:44.811Z,58.40
2023-10-03T04:19:12.380Z,58.53
2023-10-03T04:21:41.257Z,58.53
2023-10-03T04:24:10.621Z,58.29
2023-10-03T04:26:38.077Z,58.50
2023-10-03T04:29:04.805Z,58.61
2023-10-03T04:31:31.578Z,58.51
2023-10-03T04:33:58.157Z,58.64
2023-10-03T04:36:27.157Z,58.42
2023-10-03T04:38:54.427Z,58.73
2023-10-03T04:41:21.327Z,58.63
2023-10-03T04:43:47.755Z,58.61
2023-10-03T04:46:14.344Z,58.56
2023-10-03T04:48:40.836Z,58.43
2023-10-03T04:51:07.242Z,58.31
2023-10-03T04:53:33.883Z,58.31
2023-10-03T04:56:00.394Z,58.29
2023-10-03T04:58:26.788Z,58.68
2023-10-03T05:00:53.211Z,58.47
2023-10-03T05:03:21.024Z,58.57
2023-10-03T05:05:49.955Z,58.40
2023-10-03T05:08:16.832Z,58.34
2023-10-03T05:10:43.219Z,58.60
2023-10-03T05:13:09.725Z,58.31
2023-10-03T05:15:36.107Z,58.60
2023-10-03T05:18:04.401Z,58.53
2023-10-03T05:20:39.004Z,58.26
2023-10-03T05:23:05.955Z,58.34
2023-10-03T05:25:37.698Z,58.45
2023-10-03T05:28:05.213Z,58.44
2023-10-03T05:30:34.360Z,58.25
2023-10-03T05:33:01.213Z,58.28
2023-10-03T05:35:27.774Z,58.56
2023-10-03T05:37:54.279Z,58.52
2023-10-03T05:40:21.575Z,58.53
2023-10-03T05:42:51.404Z,58.33
2023-10-03T05:45:18.352Z,58.25
2023-10-03T05:47:48.114Z,58.40
2023-10-03T05:50:18.015Z,58.58
2023-10-03T05:52:47.114Z,58.55
2023-10-03T05:55:13.521Z,58.26
2023-10-03T05:57:42.349Z,58.37
2023-10-03T06:00:10.160Z,58.29
2023-10-03T06:02:37.491Z,58.70
2023-10-03T06:05:03.931Z,58.70
2023-10-03T06:07:31.587Z,58.34
2023-10-03T06:09:58.005Z,58.45
2023-10-03T06:12:24.847Z,58.74
2023-10-03T06:14:51.653Z,58.61
2023-10-03T06:17:20.851Z,58.69
2023-10-03T06:19:47.242Z,58.50
2023-10-03T06:22:13.928Z,58.77
2023-10-03T06:24:40.414Z,58.45
2023-10-03T06:27:09.654Z,58.87
2023-10-03T06:29:36.466Z,58.70
2023-10-03T06:32:02.872Z,58.64
2023-10-03T06:34:29.609Z,58.66
2023-10-03T06:36:56.000Z,58.62
2023-10-03T06:39:22.445Z,58.70
2023-10-03T06:41:48.906Z,58.74
2023-10-03T06:44:17.699Z,58.87
2023-10-03T06:46:44.165Z,58.70
2023-10-03T06:49:11.751Z,58.76
2023-10-03T06:51:38.299Z,58.42
2023-10-03T06:54:05.326Z,58.06
2023-10-03T06:56:34.085Z,58.19
2023-10-03T06:59:01.060Z,57.93
2023-10-03T07:01:27.987Z,57.92
2023-10-03T07:03:55.628Z,58.77
2023-10-03T07:06:22.313Z,58.46
2023-10-03T07:08:49.461Z,57.92
2023-10-03T07:11:18.145Z,58.26
2023-10-03T07:13:44.693Z,57.63
2023-10-03T07:16:12.285Z,57.35
2023-10-03T07:18:38.988Z,58.45
2023-10-03T07:21:05.451Z,58.59
2023-10-03T07:23:31.893Z,58.16
2023-10-03T07:25:58.328Z,58.21
2023-10-03T07:28:24.836Z,57.51
2023-10-03T07:30:51.638Z,57.50
2023-10-03T07:33:18.194Z,57.31
2023-10-03T07:35:45.983Z,56.95
2023-10-03T07:38:12.653Z,57.13
2023-10-03T07:40:39.912Z,57.02
2023-10-03T07:43:13.466Z,57.00
2023-10-03T07:45:41.368Z,57.15
2023-10-03T07:48:08.001Z,57.52
2023-10-03T07:50:38.661Z,57.40
2023-10-03T07:53:12.417Z,57.23
2023-10-03T07:55:40.199Z,57.26
2023-10-03T07:58:06.748Z,57.05
2023-10-03T08:00:33.514Z,56.76
2023-10-03T08:03:00.181Z,56.63
2023-10-03T08:05:29.235Z,56.42
2023-10-03T08:07:55.882Z,56.32
2023-10-03T08:10:22.294Z,56.37
2023-10-03T08:12:53.720Z,56.24
2023-10-03T08:15:23.919Z,56.12
2023-10-03T08:17:50.802Z,56.04
2023-10-03T08:20:19.266Z,56.11
2023-10-03T08:22:54.432Z,56.69
2023-10-03T08:25:21.111Z,56.71
2023-10-03T08:27:47.900Z,56.80
2023-10-03T08:30:27.220Z,56.80
2023-10-03T08:32:57.327Z,56.59
2023-10-03T08:35:35.831Z,56.55
2023-10-03T08:38:09.002Z,56.54
2023-10-03T08:40:42.331Z,56.78
2023-10-03T08:43:09.300Z,56.72
2023-10-03T08:45:42.791Z,56.59
2023-10-03T08:48:09.417Z,56.65
2023-10-03T08:50:42.736Z,56.65
2023-10-03T08:53:18.752Z,56.81
2023-10-03T08:55:45.634Z,56.60
2023-10-03T08:58:14.428Z,56.66
2023-10-03T09:00:44.345Z,56.58
2023-10-03T09:03:12.325Z,56.50
2023-10-03T09:05:41.843Z,56.09
2023-10-03T09:08:11.795Z,56.28
2023-10-03T09:10:54.386Z,56.79
2023-10-03T09:13:25.040Z,56.94
2023-10-03T09:16:01.734Z,57.10
2023-10-03T09:18:32.456Z,57.08
2023-10-03T09:21:02.122Z,57.25
2023-10-03T09:23:28.843Z,57.02
2023-10-03T09:25:57.382Z,57.04
2023-10-03T09:28:36.514Z,57.12
2023-10-03T09:31:11.780Z,57.29
2023-10-03T09:33:41.133Z,57.20
2023-10-03T09:36:09.673Z,57.46
2023-10-03T09:38:43.555Z,57.21
2023-10-03T09:41:18.064Z,57.39
2023-10-03T09:43:48.896Z,57.50
2023-10-03T09:46:15.310Z,57.39
2023-10-03T09:48:41.813Z,57.48
2023-10-03T09:51:08.359Z,57.59
2023-10-03T09:53:35.002Z,57.36
2023-10-03T09:56:01.432Z,57.71
2023-10-03T09:58:32.697Z,57.34
2023-10-03T10:00:59.181Z,57.75
2023-10-03T10:03:29.699Z,57.36
2023-10-03T10:06:15.099Z,57.74
2023-10-03T10:08:59.304Z,57.92
2023-10-03T10:11:31.325Z,57.73
2023-10-03T10:14:09.798Z,58.08
2023-10-03T10:16:36.612Z,57.70
2023-10-03T10:19:05.345Z,58.80
2023-10-03T10:21:33.087Z,56.64
2023-10-03T10:24:21.289Z,57.86
2023-10-03T10:26:51.002Z,57.47
2023-10-03T10:29:20.845Z,57.00
2023-10-03T10:31:53.424Z,56.81
2023-10-03T10:34:22.531Z,56.37
2023-10-03T10:36:56.186Z,56.61
2023-10-03T10:39:24.561Z,56.07
2023-10-03T10:42:12.972Z,55.78
2023-10-03T10:44:59.342Z,55.56
2023-10-03T10:47:25.770Z,55.94
2023-10-03T10:50:09.678Z,55.48
2023-10-03T10:52:53.377Z,55.04
2023-10-03T10:55:22.150Z,54.64
2023-10-03T10:57:49.432Z,55.29
2023-10-03T11:00:22.262Z,55.01
2023-10-03T11:02:48.940Z,54.67
2023-10-03T11:05:15.481Z,55.08
2023-10-03T11:07:45.999Z,54.56
2023-10-03T11:10:32.267Z,54.51
2023-10-03T11:13:00.677Z,54.49
2023-10-03T11:15:27.482Z,54.31
2023-10-03T11:17:54.123Z,55.09
2023-10-03T11:20:21.056Z,55.92
2023-10-03T11:22:48.554Z,55.81
2023-10-03T11:25:15.098Z,55.36
2023-10-03T11:27:41.789Z,55.16
2023-10-03T11:30:18.111Z,54.97
2023-10-03T11:32:44.582Z,55.13
2023-10-03T11:35:14.889Z,55.32
2023-10-03T11:37:45.078Z,55.41
2023-10-03T11:40:12.588Z,55.35
2023-10-03T11:42:48.673Z,55.16
2023-10-03T11:45:25.436Z,54.79
2023-10-03T11:47:59.794Z,55.02
2023-10-03T11:50:29.252Z,55.15
2023-10-03T11:52:57.789Z,55.03
2023-10-03T11:55:24.640Z,54.92
2023-10-03T11:57:51.283Z,54.60
2023-10-03T12:00:17.692Z,55.06
2023-10-03T12:02:47.139Z,55.52
2023-10-03T12:05:13.670Z,55.66
2023-10-03T12:07:47.075Z,55.74
2023-10-03T12:10:13.677Z,55.84
2023-10-03T12:12:40.158Z,55.93
2023-10-03T12:15:13.537Z,55.82
2023-10-03T12:17:41.048Z,55.69
2023-10-03T12:20:11.341Z,55.44
2023-10-03T12:22:40.925Z,55.35
2023-10-03T12:25:07.599Z,55.16
2023-10-03T12:27:33.992Z,55.16
2023-10-03T12:30:05.156Z,55.01
2023-10-03T12:32:35.697Z,55.02
2023-10-03T12:35:02.217Z,55.65
2023-10-03T12:37:30.028Z,56.03
2023-10-03T12:39:57.205Z,55.86
2023-10-03T12:42:23.603Z,56.23
2023-10-03T12:44:51.734Z,55.58
2023-10-03T12:47:19.219Z,55.22
2023-10-03T12:49:45.662Z,55.52
2023-10-03T12:52:12.066Z,55.23
2023-10-03T12:54:39.644Z,55.20
2023-10-03T12:57:06.668Z,55.12
2023-10-03T12:59:33.306Z,55.22
2023-10-03T13:02:01.024Z,55.22
2023-10-03T13:04:29.082Z,55.20
2023-10-03T13:06:55.695Z,55.13
2023-10-03T13:09:22.836Z,55.83
2023-10-03T13:11:49.404Z,56.11
2023-10-03T13:14:15.790Z,56.12
2023-10-03T13:16:42.173Z,56.37
2023-10-03T13:19:10.945Z,55.98
2023-10-03T13:21:37.955Z,56.27
2023-10-03T13:24:04.592Z,56.14
2023-10-03T13:26:31.088Z,56.33
2023-10-03T13:28:57.475Z,56.25
2023-10-03T13:31:23.984Z,55.44
2023-10-03T13:33:50.890Z,55.32
2023-10-03T13:36:19.944Z,56.03
2023-10-03T13:38:46.648Z,56.27
2023-10-03T13:41:13.049Z,56.29
2023-10-03T13:43:40.677Z,56.35
2023-10-03T13:46:07.154Z,55.99
2023-10-03T13:48:33.713Z,56.06
2023-10-03T13:51:03.929Z,56.37
2023-10-03T13:53:32.407Z,56.68
2023-10-03T13:56:00.414Z,56.50
2023-10-03T13:58:30.422Z,56.63
2023-10-03T14:00:57.121Z,56.52
2023-10-03T14:03:23.783Z,56.56
2023-10-03T14:05:50.246Z,57.01
2023-10-03T14:08:17.511Z,57.30
2023-10-03T14:10:44.450Z,57.31
2023-10-03T14:13:11.557Z,57.36
2023-10-03T14:15:41.286Z,57.20
2023-10-03T14:18:07.789Z,57.54
2023-10-03T14:20:34.291Z,57.37
2023-10-03T14:23:00.695Z,57.38
2023-10-03T14:25:27.671Z,57.08
2023-10-03T14:27:55.411Z,57.05
2023-10-03T14:30:22.124Z,57.09
2023-10-03T14:32:50.576Z,57.16
2023-10-03T14:35:17.058Z,56.96
2023-10-03T14:37:43.464Z,57.11
2023-10-03T14:40:11.278Z,56.96
2023-10-03T14:42:38.562Z,57.05
2023-10-03T14:45:05.672Z,56.96
2023-10-03T14:47:32.530Z,57.09
2023-10-03T14:49:59.200Z,57.03
2023-10-03T14:52:25.640Z,56.87
2023-10-03T14:54:52.141Z,57.13
2023-10-03T14:57:18.606Z,56.96
2023-10-03T14:59:45.079Z,57.08
2023-10-03T15:02:12.368Z,57.20
2023-10-03T15:04:38.846Z,56.84
2023-10-03T15:07:05.258Z,57.15
2023-10-03T15:09:31.671Z,57.05
2023-10-03T15:11:59.489Z,56.89
2023-10-03T15:14:27.748Z,57.00
2023-10-03T15:16:55.441Z,57.01
2023-10-03T15:19:21.918Z,57.09
2023-10-03T15:21:48.355Z,56.96
2023-10-03T15:24:15.579Z,56.76
2023-10-03T15:26:42.072Z,56.74
2023-10-03T15:29:09.900Z,56.65
2023-10-03T15:31:37.605Z,56.43
2023-10-03T15:34:04.286Z,56.65
2023-10-03T15:36:33.431Z,57.09
2023-10-03T15:38:59.882Z,57.23
2023-10-03T15:41:26.299Z,57.20
2023-10-03T15:43:53.341Z,57.18
2023-10-03T15:46:19.995Z,57.15
2023-10-03T15:48:46.529Z,57.17
2023-10-03T15:51:16.293Z,56.80
2023-10-03T15:53:46.771Z,56.77
2023-10-03T15:56:15.047Z,56.81
2023-10-03T15:58:42.490Z,56.66
2023-10-03T16:01:12.500Z,56.87
2023-10-03T16:03:41.337Z,56.87
2023-10-03T16:06:09.648Z,56.94
2023-10-03T16:08:37.593Z,57.51
2023-10-03T16:11:05.317Z,57.74
2023-10-03T16:13:33.120Z,57.81
2023-10-03T16:15:59.552Z,57.70
2023-10-03T16:18:26.067Z,57.73
2023-10-03T16:20:53.240Z,57.50
2023-10-03T16:23:19.786Z,57.96
2023-10-03T16:25:49.710Z,57.96
2023-10-03T16:28:16.125Z,57.64
2023-10-03T16:30:45.506Z,57.33
2023-10-03T16:33:12.004Z,57.47
2023-10-03T16:35:38.521Z,57.48
2023-10-03T16:38:04.928Z,57.09
2023-10-03T16:40:32.066Z,57.50
2023-10-03T16:42:58.509Z,57.77
2023-10-03T16:45:25.766Z,57.14
2023-10-03T16:47:52.789Z,57.37
2023-10-03T16:50:20.405Z,57.76
2023-10-03T16:52:47.276Z,57.48
2023-10-03T16:55:14.176Z,57.82
2023-10-03T16:57:40.631Z,57.50
2023-10-03T17:00:07.381Z,57.47
2023-10-03T17:02:34.030Z,57.88
2023-10-03T17:05:00.540Z,57.71
2023-10-03T17:07:27.262Z,57.70
2023-10-03T17:09:53.680Z,57.43
2023-10-03T17:12:20.195Z,57.58
2023-10-03T17:14:46.616Z,57.78
2023-10-03T17:17:13.013Z,57.79
2023-10-03T17:19:39.690Z,57.79
2023-10-03T17:22:06.601Z,58.17
2023-10-03T17:24:33.013Z,58.23
2023-10-03T17:27:01.101Z,58.16
2023-10-03T17:29:28.416Z,59.12
2023-10-03T17:31:56.026Z,59.23
2023-10-03T17:34:22.489Z,59.23
2023-10-03T17:36:48.953Z,59.35
2023-10-03T17:39:16.548Z,59.40
2023-10-03T17:41:43.028Z,60.11
2023-10-03T17:44:09.791Z,60.24
2023-10-03T17:46:36.228Z,60.36
2023-10-03T17:49:05.903Z,60.36
2023-10-03T17:51:32.706Z,60.30
2023-10-03T17:53:59.233Z,60.60
2023-10-03T17:56:25.643Z,60.37
2023-10-03T17:58:52.116Z,60.46
2023-10-03T18:01:23.106Z,60.44
2023-10-03T18:03:49.685Z,60.45
2023-10-03T18:06:16.298Z,60.54
2023-10-03T18:08:42.711Z,60.63
2023-10-03T18:11:09.150Z,60.86
2023-10-03T18:13:35.539Z,60.81
2023-10-03T18:16:01.934Z,60.85
2023-10-03T18:18:28.532Z,60.63
2023-10-03T18:20:55.124Z,60.38
2023-10-03T18:23:22.954Z,60.70
2023-10-03T18:25:49.388Z,60.44
2023-10-03T18:28:15.845Z,60.36
2023-10-03T18:30:45.380Z,60.70
2023-10-03T18:33:14.073Z,60.57
2023-10-03T18:35:40.633Z,60.45
2023-10-03T18:38:07.677Z,60.52
2023-10-03T18:40:38.272Z,60.33
2023-10-03T18:43:07.416Z,60.33
2023-10-03T18:45:43.781Z,60.42
2023-10-03T18:48:18.338Z,60.50
2023-10-03T18:50:44.862Z,60.53
2023-10-03T18:53:11.331Z,60.75
2023-10-03T18:55:38.536Z,60.66
2023-10-03T18:58:05.889Z,60.43
2023-10-03T19:00:32.362Z,60.64
2023-10-03T19:02:58.911Z,60.51
2023-10-03T19:05:25.385Z,60.33
2023-10-03T19:07:51.824Z,60.74
2023-10-03T19:10:19.934Z,60.45
2023-10-03T19:12:46.336Z,60.66
2023-10-03T19:15:13.051Z,60.43
2023-10-03T19:17:39.622Z,60.47
2023-10-03T19:20:07.900Z,60.70
2023-10-03T19:22:34.797Z,60.64
2023-10-03T19:25:02.838Z,60.22
2023-10-03T19:27:29.462Z,60.38
2023-10-03T19:29:55.996Z,60.64
2023-10-03T19:32:22.433Z,60.58
2023-10-03T19:34:50.052Z,60.60
2023-10-03T19:37:18.334Z,60.37
2023-10-03T19:39:45.091Z,60.48
2023-10-03T19:42:11.516Z,60.45
2023-10-03T19:44:37.938Z,60.24
2023-10-03T19:47:05.260Z,60.44
2023-10-03T19:49:35.459Z,60.39
2023-10-03T19:52:01.872Z,60.23
2023-10-03T19:54:30.603Z,60.25
2023-10-03T19:56:57.101Z,60.18
2023-10-03T19:59:23.539Z,60.44
2023-10-03T20:01:50.076Z,60.38
2023-10-03T20:04:16.599Z,60.21
2023-10-03T20:06:43.041Z,60.28
2023-10-03T20:09:12.343Z,60.17
2023-10-03T20:11:39.080Z,60.34
2023-10-03T20:14:09.362Z,60.31
2023-10-03T20:16:36.380Z,60.02
2023-10-03T20:19:03.102Z,60.36
2023-10-03T20:21:29.748Z,60.03
2023-10-03T20:23:56.931Z,60.26
2023-10-03T20:26:23.433Z,60.02
2023-10-03T20:28:50.110Z,60.18
2023-10-03T20:31:17.325Z,60.24
2023-10-03T20:33:44.263Z,60.18
2023-10-03T20:36:14.278Z,60.00
2023-10-03T20:38:41.082Z,59.95
2023-10-03T20:41:10.927Z,59.99
2023-10-03T20:43:37.608Z,59.87
2023-10-03T20:46:11.199Z,60.02
2023-10-03T20:48:39.474Z,59.91
2023-10-03T20:51:08.870Z,59.95
2023-10-03T20:53:35.534Z,59.89
2023-10-03T20:56:01.948Z,59.92
2023-10-03T20:58:28.374Z,59.89
2023-10-03T21:00:54.774Z,59.98
2023-10-03T21:03:21.245Z,60.19
2023-10-03T21:05:47.705Z,60.06
2023-10-03T21:08:14.124Z,59.93
2023-10-03T21:10:41.886Z,59.89
2023-10-03T21:13:08.290Z,60.08
2023-10-03T21:15:36.779Z,60.00
2023-10-03T21:18:03.768Z,59.82
2023-10-03T21:20:30.255Z,59.77
2023-10-03T21:22:57.097Z,59.78
2023-10-03T21:25:23.825Z,59.76
2023-10-03T21:27:50.241Z,59.87
2023-10-03T21:30:16.685Z,59.92
2023-10-03T21:32:43.313Z,59.75
2023-10-03T21:35:09.876Z,59.77
2023-10-03T21:37:36.793Z,59.85
2023-10-03T21:40:03.854Z,59.99
2023-10-03T21:42:30.486Z,59.69
2023-10-03T21:44:57.463Z,59.82
2023-10-03T21:47:23.920Z,59.96
2023-10-03T21:49:50.780Z,59.95
2023-10-03T21:52:17.336Z,59.95
2023-10-03T21:54:43.718Z,59.74
2023-10-03T21:57:10.154Z,59.81
2023-10-03T21:59:36.849Z,59.92
2023-10-03T22:02:03.324Z,60.01
2023-10-03T22:04:29.767Z,59.65
2023-10-03T22:06:57.629Z,59.90
2023-10-03T22:09:24.448Z,59.55
2023-10-03T22:11:51.647Z,59.68
2023-10-03T22:14:19.002Z,59.87
2023-10-03T22:16:45.785Z,59.67
2023-10-03T22:19:12.435Z,59.75
2023-10-03T22:21:38.805Z,59.62
2023-10-03T22:24:05.722Z,59.81
2023-10-03T22:26:32.166Z,59.55
2023-10-03T22:28:59.022Z,59.85
2023-10-03T22:31:25.864Z,59.50
2023-10-03T22:33:53.363Z,59.58
2023-10-03T22:36:22.422Z,59.89
2023-10-03T22:38:50.158Z,59.85
2023-10-03T22:41:16.530Z,59.81
2023-10-03T22:43:42.927Z,59.60
2023-10-03T22:46:10.748Z,59.59
2023-10-03T22:48:37.364Z,59.87
2023-10-03T22:51:04.175Z,59.66
2023-10-03T22:53:30.671Z,59.92
2023-10-03T22:55:57.064Z,59.54
2023-10-03T22:58:23.444Z,59.90
2023-10-03T23:00:51.768Z,59.50
2023-10-03T23:03:18.220Z,59.87
2023-10-03T23:05:45.586Z,59.75
2023-10-03T23:08:11.967Z,59.74
2023-10-03T23:10:38.486Z,59.71
2023-10-03T23:13:04.871Z,59.52
2023-10-03T23:15:31.338Z,59.46
2023-10-03T23:17:57.782Z,59.73
2023-10-03T23:20:24.194Z,59.47
2023-10-03T23:22:51.172Z,59.63
2023-10-03T23:25:17.669Z,59.87
2023-10-03T23:27:44.082Z,59.56
2023-10-03T23:30:12.670Z,59.58
2023-10-03T23:32:39.376Z,59.49
2023-10-03T23:35:07.849Z,59.50
2023-10-03T23:37:35.394Z,59.41
2023-10-03T23:40:12.995Z,59.63
2023-10-03T23:42:39.418Z,59.63
2023-10-03T23:45:06.054Z,59.49
2023-10-03T23:47:35.596Z,59.82
2023-10-03T23:50:06.439Z,59.77
2023-10-03T23:52:33.866Z,59.70
2023-10-03T23:55:01.486Z,59.37
2023-10-03T23:57:36.693Z,59.46
